sensor_id;sensor_type;location;lat;lon;timestamp;P1;durP1;ratioP1;P2;durP2;ratioP2
80957;SDS011;70419;42.700;23.316;2023-06-14T00:01:13;8.25;;;4.90;;
80957;SDS011;70419;42.700;23.316;2023-06-14T00:03:39;7.63;;;4.30;;
80957;SDS011;70419;42.700;23.316;2023-06-14T00:06:05;9.65;;;4.70;;
80957;SDS011;70419;42.700;23.316;2023-06-14T00:08:30;7.63;;;4.30;;
80957;SDS011;70419;42.700;23.316;2023-06-14T00:10:56;7.05;;;4.20;;
80957;SDS011;70419;42.700;23.316;2023-06-14T00:13:22;7.80;;;4.80;;
80957;SDS011;70419;42.700;23.316;2023-06-14T00:15:48;10.48;;;4.47;;
80957;SDS011;70419;42.700;23.316;2023-06-14T00:18:15;11.10;;;5.07;;
80957;SDS011;70419;42.700;23.316;2023-06-14T00:20:41;7.05;;;4.25;;
80957;SDS011;70419;42.700;23.316;2023-06-14T00:23:09;7.15;;;4.35;;
80957;SDS011;70419;42.700;23.316;2023-06-14T00:25:35;8.68;;;4.70;;
80957;SDS011;70419;42.700;23.316;2023-06-14T00:28:01;10.27;;;5.35;;
80957;SDS011;70419;42.700;23.316;2023-06-14T00:30:27;16.30;;;4.22;;
80957;SDS011;70419;42.700;23.316;2023-06-14T00:32:55;7.45;;;4.78;;
80957;SDS011;70419;42.700;23.316;2023-06-14T00:35:21;9.02;;;4.63;;
80957;SDS011;70419;42.700;23.316;2023-06-14T00:37:47;10.02;;;5.30;;
80957;SDS011;70419;42.700;23.316;2023-06-14T00:40:13;7.65;;;5.03;;
80957;SDS011;70419;42.700;23.316;2023-06-14T00:42:38;13.55;;;6.03;;
80957;SDS011;70419;42.700;23.316;2023-06-14T00:45:04;9.48;;;5.00;;
80957;SDS011;70419;42.700;23.316;2023-06-14T00:47:30;9.10;;;4.78;;
80957;SDS011;70419;42.700;23.316;2023-06-14T00:49:57;12.38;;;5.63;;
80957;SDS011;70419;42.700;23.316;2023-06-14T00:52:23;10.73;;;5.28;;
80957;SDS011;70419;42.700;23.316;2023-06-14T00:54:50;12.48;;;4.93;;
80957;SDS011;70419;42.700;23.316;2023-06-14T00:57:17;10.43;;;4.85;;
80957;SDS011;70419;42.700;23.316;2023-06-14T00:59:44;9.10;;;5.22;;
80957;SDS011;70419;42.700;23.316;2023-06-14T01:02:11;8.80;;;5.43;;
80957;SDS011;70419;42.700;23.316;2023-06-14T01:04:39;9.93;;;4.43;;
80957;SDS011;70419;42.700;23.316;2023-06-14T01:07:27;13.20;;;5.00;;
80957;SDS011;70419;42.700;23.316;2023-06-14T01:15:16;8.35;;;5.65;;
80957;SDS011;70419;42.700;23.316;2023-06-14T01:17:43;8.90;;;5.38;;
80957;SDS011;70419;42.700;23.316;2023-06-14T01:20:12;7.95;;;5.10;;
80957;SDS011;70419;42.700;23.316;2023-06-14T01:22:52;7.93;;;5.40;;
80957;SDS011;70419;42.700;23.316;2023-06-14T01:25:19;12.07;;;5.55;;
80957;SDS011;70419;42.700;23.316;2023-06-14T01:27:47;9.57;;;4.80;;
80957;SDS011;70419;42.700;23.316;2023-06-14T01:30:14;8.52;;;5.13;;
80957;SDS011;70419;42.700;23.316;2023-06-14T01:32:42;10.98;;;5.38;;
80957;SDS011;70419;42.700;23.316;2023-06-14T01:35:08;9.73;;;5.18;;
80957;SDS011;70419;42.700;23.316;2023-06-14T01:37:34;13.75;;;5.50;;
80957;SDS011;70419;42.700;23.316;2023-06-14T01:40:02;7.32;;;5.20;;
80957;SDS011;70419;42.700;23.316;2023-06-14T01:42:32;9.15;;;5.68;;
80957;SDS011;70419;42.700;23.316;2023-06-14T01:45:00;11.32;;;5.43;;
80957;SDS011;70419;42.700;23.316;2023-06-14T01:47:29;7.20;;;4.95;;
80957;SDS011;70419;42.700;23.316;2023-06-14T01:49:56;10.13;;;5.40;;
80957;SDS011;70419;42.700;23.316;2023-06-14T01:52:23;10.45;;;5.38;;
80957;SDS011;70419;42.700;23.316;2023-06-14T01:54:52;13.90;;;5.82;;
80957;SDS011;70419;42.700;23.316;2023-06-14T01:57:19;9.38;;;6.35;;
80957;SDS011;70419;42.700;23.316;2023-06-14T01:59:46;7.28;;;5.13;;
80957;SDS011;70419;42.700;23.316;2023-06-14T02:02:14;9.93;;;5.53;;
80957;SDS011;70419;42.700;23.316;2023-06-14T02:04:40;9.40;;;4.82;;
80957;SDS011;70419;42.700;23.316;2023-06-14T02:07:07;8.75;;;5.55;;
80957;SDS011;70419;42.700;23.316;2023-06-14T02:09:33;9.40;;;5.25;;
80957;SDS011;70419;42.700;23.316;2023-06-14T02:12:00;14.32;;;5.25;;
80957;SDS011;70419;42.700;23.316;2023-06-14T02:14:27;11.35;;;5.28;;
80957;SDS011;70419;42.700;23.316;2023-06-14T02:16:53;13.85;;;6.32;;
80957;SDS011;70419;42.700;23.316;2023-06-14T02:19:20;9.45;;;5.75;;
80957;SDS011;70419;42.700;23.316;2023-06-14T02:21:46;7.70;;;5.13;;
80957;SDS011;70419;42.700;23.316;2023-06-14T02:24:12;10.40;;;5.72;;
80957;SDS011;70419;42.700;23.316;2023-06-14T02:26:39;11.65;;;5.70;;
80957;SDS011;70419;42.700;23.316;2023-06-14T02:29:08;9.88;;;5.95;;
80957;SDS011;70419;42.700;23.316;2023-06-14T02:31:36;10.90;;;5.25;;
80957;SDS011;70419;42.700;23.316;2023-06-14T02:34:03;9.43;;;5.78;;
80957;SDS011;70419;42.700;23.316;2023-06-14T02:36:28;8.23;;;5.47;;
80957;SDS011;70419;42.700;23.316;2023-06-14T02:38:57;11.13;;;6.05;;
80957;SDS011;70419;42.700;23.316;2023-06-14T02:41:23;14.32;;;5.88;;
80957;SDS011;70419;42.700;23.316;2023-06-14T02:43:49;12.68;;;5.85;;
80957;SDS011;70419;42.700;23.316;2023-06-14T02:46:18;9.75;;;5.22;;
80957;SDS011;70419;42.700;23.316;2023-06-14T02:48:44;9.95;;;5.38;;
80957;SDS011;70419;42.700;23.316;2023-06-14T02:51:10;13.95;;;5.95;;
80957;SDS011;70419;42.700;23.316;2023-06-14T02:53:37;11.40;;;5.63;;
80957;SDS011;70419;42.700;23.316;2023-06-14T02:56:03;11.00;;;5.95;;
80957;SDS011;70419;42.700;23.316;2023-06-14T02:58:30;8.93;;;6.22;;
80957;SDS011;70419;42.700;23.316;2023-06-14T03:00:56;12.05;;;6.03;;
80957;SDS011;70419;42.700;23.316;2023-06-14T03:03:22;12.73;;;6.32;;
80957;SDS011;70419;42.700;23.316;2023-06-14T03:05:50;13.00;;;5.75;;
80957;SDS011;70419;42.700;23.316;2023-06-14T03:08:16;16.17;;;6.53;;
80957;SDS011;70419;42.700;23.316;2023-06-14T03:10:47;15.77;;;6.95;;
80957;SDS011;70419;42.700;23.316;2023-06-14T03:13:13;13.60;;;6.32;;
80957;SDS011;70419;42.700;23.316;2023-06-14T03:15:43;13.30;;;6.10;;
80957;SDS011;70419;42.700;23.316;2023-06-14T03:18:11;16.17;;;6.55;;
80957;SDS011;70419;42.700;23.316;2023-06-14T03:20:40;15.80;;;6.32;;
80957;SDS011;70419;42.700;23.316;2023-06-14T03:23:07;14.43;;;7.20;;
80957;SDS011;70419;42.700;23.316;2023-06-14T03:25:33;13.75;;;7.00;;
80957;SDS011;70419;42.700;23.316;2023-06-14T03:28:09;14.18;;;6.35;;
80957;SDS011;70419;42.700;23.316;2023-06-14T03:30:35;12.30;;;6.30;;
80957;SDS011;70419;42.700;23.316;2023-06-14T03:33:01;13.10;;;6.40;;
80957;SDS011;70419;42.700;23.316;2023-06-14T03:35:27;17.52;;;7.35;;
80957;SDS011;70419;42.700;23.316;2023-06-14T03:37:54;14.02;;;7.10;;
80957;SDS011;70419;42.700;23.316;2023-06-14T03:40:20;10.52;;;5.43;;
80957;SDS011;70419;42.700;23.316;2023-06-14T03:42:46;14.43;;;6.75;;
80957;SDS011;70419;42.700;23.316;2023-06-14T03:45:12;10.18;;;5.85;;
80957;SDS011;70419;42.700;23.316;2023-06-14T03:47:38;14.02;;;6.25;;
80957;SDS011;70419;42.700;23.316;2023-06-14T03:50:04;16.65;;;7.15;;
80957;SDS011;70419;42.700;23.316;2023-06-14T03:52:30;20.88;;;7.20;;
80957;SDS011;70419;42.700;23.316;2023-06-14T03:54:57;9.35;;;5.60;;
80957;SDS011;70419;42.700;23.316;2023-06-14T03:57:25;13.30;;;5.20;;
80957;SDS011;70419;42.700;23.316;2023-06-14T03:59:51;14.98;;;6.20;;
80957;SDS011;70419;42.700;23.316;2023-06-14T04:02:17;14.30;;;6.72;;
80957;SDS011;70419;42.700;23.316;2023-06-14T04:04:44;19.73;;;7.20;;
80957;SDS011;70419;42.700;23.316;2023-06-14T04:07:11;14.35;;;6.32;;
80957;SDS011;70419;42.700;23.316;2023-06-14T04:09:37;11.70;;;6.38;;
80957;SDS011;70419;42.700;23.316;2023-06-14T04:12:04;17.35;;;7.13;;
80957;SDS011;70419;42.700;23.316;2023-06-14T04:14:31;16.45;;;6.72;;
80957;SDS011;70419;42.700;23.316;2023-06-14T04:17:00;22.77;;;6.38;;
80957;SDS011;70419;42.700;23.316;2023-06-14T04:19:27;10.23;;;5.75;;
80957;SDS011;70419;42.700;23.316;2023-06-14T04:21:53;12.43;;;6.30;;
80957;SDS011;70419;42.700;23.316;2023-06-14T04:24:20;14.90;;;5.60;;
80957;SDS011;70419;42.700;23.316;2023-06-14T04:26:48;24.35;;;6.80;;
80957;SDS011;70419;42.700;23.316;2023-06-14T04:29:14;10.32;;;5.75;;
80957;SDS011;70419;42.700;23.316;2023-06-14T04:31:45;14.45;;;5.85;;
80957;SDS011;70419;42.700;23.316;2023-06-14T04:34:11;16.48;;;5.90;;
80957;SDS011;70419;42.700;23.316;2023-06-14T04:36:43;10.35;;;5.45;;
80957;SDS011;70419;42.700;23.316;2023-06-14T04:39:22;10.18;;;5.78;;
80957;SDS011;70419;42.700;23.316;2023-06-14T04:41:49;13.85;;;7.05;;
80957;SDS011;70419;42.700;23.316;2023-06-14T04:44:25;11.70;;;6.13;;
80957;SDS011;70419;42.700;23.316;2023-06-14T04:46:55;10.75;;;6.07;;
80957;SDS011;70419;42.700;23.316;2023-06-14T04:49:23;14.60;;;5.82;;
80957;SDS011;70419;42.700;23.316;2023-06-14T04:51:52;10.88;;;5.60;;
80957;SDS011;70419;42.700;23.316;2023-06-14T04:54:22;14.10;;;7.30;;
80957;SDS011;70419;42.700;23.316;2023-06-14T04:56:51;12.60;;;6.20;;
80957;SDS011;70419;42.700;23.316;2023-06-14T04:59:18;12.43;;;6.07;;
80957;SDS011;70419;42.700;23.316;2023-06-14T05:01:45;16.33;;;6.18;;
80957;SDS011;70419;42.700;23.316;2023-06-14T05:04:16;13.32;;;6.28;;
80957;SDS011;70419;42.700;23.316;2023-06-14T05:06:45;11.02;;;6.28;;
80957;SDS011;70419;42.700;23.316;2023-06-14T05:09:13;15.10;;;6.80;;
80957;SDS011;70419;42.700;23.316;2023-06-14T05:11:42;11.02;;;7.10;;
80957;SDS011;70419;42.700;23.316;2023-06-14T05:14:12;10.05;;;6.35;;
80957;SDS011;70419;42.700;23.316;2023-06-14T05:16:40;9.70;;;6.85;;
80957;SDS011;70419;42.700;23.316;2023-06-14T05:19:07;14.05;;;7.55;;
80957;SDS011;70419;42.700;23.316;2023-06-14T05:21:33;20.63;;;7.82;;
80957;SDS011;70419;42.700;23.316;2023-06-14T05:23:59;21.40;;;7.32;;
80957;SDS011;70419;42.700;23.316;2023-06-14T05:26:26;16.60;;;6.43;;
80957;SDS011;70419;42.700;23.316;2023-06-14T05:28:57;12.05;;;6.20;;
80957;SDS011;70419;42.700;23.316;2023-06-14T05:31:26;15.95;;;6.72;;
80957;SDS011;70419;42.700;23.316;2023-06-14T05:33:54;11.82;;;6.47;;
80957;SDS011;70419;42.700;23.316;2023-06-14T05:36:20;11.55;;;7.15;;
80957;SDS011;70419;42.700;23.316;2023-06-14T05:38:47;15.48;;;8.32;;
80957;SDS011;70419;42.700;23.316;2023-06-14T05:41:13;15.93;;;8.00;;
80957;SDS011;70419;42.700;23.316;2023-06-14T05:43:39;12.73;;;8.65;;
80957;SDS011;70419;42.700;23.316;2023-06-14T05:46:05;14.10;;;7.95;;
80957;SDS011;70419;42.700;23.316;2023-06-14T05:48:31;15.45;;;8.00;;
80957;SDS011;70419;42.700;23.316;2023-06-14T05:51:00;21.40;;;8.50;;
80957;SDS011;70419;42.700;23.316;2023-06-14T05:53:26;14.88;;;8.50;;
80957;SDS011;70419;42.700;23.316;2023-06-14T05:55:52;16.23;;;8.55;;
80957;SDS011;70419;42.700;23.316;2023-06-14T05:58:29;21.20;;;9.20;;
80957;SDS011;70419;42.700;23.316;2023-06-14T06:00:54;23.25;;;9.48;;
80957;SDS011;70419;42.700;23.316;2023-06-14T06:03:20;22.35;;;8.48;;
80957;SDS011;70419;42.700;23.316;2023-06-14T06:05:48;28.42;;;10.93;;
80957;SDS011;70419;42.700;23.316;2023-06-14T06:08:14;21.05;;;9.15;;
80957;SDS011;70419;42.700;23.316;2023-06-14T06:10:41;19.23;;;8.52;;
80957;SDS011;70419;42.700;23.316;2023-06-14T06:13:09;14.93;;;8.38;;
80957;SDS011;70419;42.700;23.316;2023-06-14T06:15:35;21.75;;;9.40;;
80957;SDS011;70419;42.700;23.316;2023-06-14T06:18:02;19.60;;;8.77;;
80957;SDS011;70419;42.700;23.316;2023-06-14T06:20:28;16.25;;;8.43;;
80957;SDS011;70419;42.700;23.316;2023-06-14T06:22:59;15.70;;;8.95;;
80957;SDS011;70419;42.700;23.316;2023-06-14T06:25:29;18.27;;;10.25;;
80957;SDS011;70419;42.700;23.316;2023-06-14T06:28:06;17.20;;;9.93;;
80957;SDS011;70419;42.700;23.316;2023-06-14T06:30:32;16.13;;;9.77;;
80957;SDS011;70419;42.700;23.316;2023-06-14T06:33:01;20.02;;;10.60;;
80957;SDS011;70419;42.700;23.316;2023-06-14T06:35:29;17.00;;;10.00;;
80957;SDS011;70419;42.700;23.316;2023-06-14T06:37:58;18.13;;;10.73;;
80957;SDS011;70419;42.700;23.316;2023-06-14T06:40:26;21.95;;;12.27;;
80957;SDS011;70419;42.700;23.316;2023-06-14T06:42:52;17.75;;;11.20;;
80957;SDS011;70419;42.700;23.316;2023-06-14T06:45:20;17.90;;;10.38;;
80957;SDS011;70419;42.700;23.316;2023-06-14T06:47:46;16.88;;;10.35;;
80957;SDS011;70419;42.700;23.316;2023-06-14T06:50:12;14.77;;;9.73;;
80957;SDS011;70419;42.700;23.316;2023-06-14T06:52:43;18.30;;;10.32;;
80957;SDS011;70419;42.700;23.316;2023-06-14T06:55:12;18.92;;;11.10;;
80957;SDS011;70419;42.700;23.316;2023-06-14T06:57:39;23.52;;;13.18;;
80957;SDS011;70419;42.700;23.316;2023-06-14T07:00:06;23.40;;;11.90;;
80957;SDS011;70419;42.700;23.316;2023-06-14T07:02:35;19.50;;;11.55;;
80957;SDS011;70419;42.700;23.316;2023-06-14T07:07:46;17.42;;;11.85;;
80957;SDS011;70419;42.700;23.316;2023-06-14T07:10:13;18.85;;;11.05;;
80957;SDS011;70419;42.700;23.316;2023-06-14T07:12:39;26.33;;;12.38;;
80957;SDS011;70419;42.700;23.316;2023-06-14T07:15:12;21.70;;;11.70;;
80957;SDS011;70419;42.700;23.316;2023-06-14T07:17:38;19.63;;;12.10;;
80957;SDS011;70419;42.700;23.316;2023-06-14T07:20:05;28.60;;;11.77;;
80957;SDS011;70419;42.700;23.316;2023-06-14T07:22:40;18.27;;;12.82;;
80957;SDS011;70419;42.700;23.316;2023-06-14T07:25:09;22.20;;;11.18;;
80957;SDS011;70419;42.700;23.316;2023-06-14T07:27:43;16.90;;;11.23;;
80957;SDS011;70419;42.700;23.316;2023-06-14T07:30:11;21.73;;;11.38;;
80957;SDS011;70419;42.700;23.316;2023-06-14T07:32:40;17.35;;;11.70;;
80957;SDS011;70419;42.700;23.316;2023-06-14T07:35:08;15.98;;;11.10;;
80957;SDS011;70419;42.700;23.316;2023-06-14T07:37:34;23.90;;;12.63;;
80957;SDS011;70419;42.700;23.316;2023-06-14T07:40:01;14.65;;;11.90;;
80957;SDS011;70419;42.700;23.316;2023-06-14T07:42:32;14.15;;;10.80;;
80957;SDS011;70419;42.700;23.316;2023-06-14T07:45:02;14.40;;;10.77;;
80957;SDS011;70419;42.700;23.316;2023-06-14T07:47:33;17.13;;;10.90;;
80957;SDS011;70419;42.700;23.316;2023-06-14T07:50:01;18.25;;;11.45;;
80957;SDS011;70419;42.700;23.316;2023-06-14T07:52:32;23.90;;;11.27;;
80957;SDS011;70419;42.700;23.316;2023-06-14T07:55:06;21.48;;;11.55;;
80957;SDS011;70419;42.700;23.316;2023-06-14T07:57:34;18.15;;;10.57;;
80957;SDS011;70419;42.700;23.316;2023-06-14T08:00:18;19.98;;;10.05;;
80957;SDS011;70419;42.700;23.316;2023-06-14T08:02:54;20.58;;;10.40;;
80957;SDS011;70419;42.700;23.316;2023-06-14T08:05:27;19.48;;;11.15;;
80957;SDS011;70419;42.700;23.316;2023-06-14T08:07:56;17.50;;;11.52;;
80957;SDS011;70419;42.700;23.316;2023-06-14T08:10:27;25.85;;;10.30;;
80957;SDS011;70419;42.700;23.316;2023-06-14T08:12:56;16.90;;;10.10;;
80957;SDS011;70419;42.700;23.316;2023-06-14T08:15:22;18.02;;;11.35;;
80957;SDS011;70419;42.700;23.316;2023-06-14T08:17:50;17.58;;;9.45;;
80957;SDS011;70419;42.700;23.316;2023-06-14T08:20:16;17.45;;;10.48;;
80957;SDS011;70419;42.700;23.316;2023-06-14T08:22:43;13.00;;;10.38;;
80957;SDS011;70419;42.700;23.316;2023-06-14T08:25:11;16.25;;;10.15;;
80957;SDS011;70419;42.700;23.316;2023-06-14T08:27:37;15.75;;;9.38;;
80957;SDS011;70419;42.700;23.316;2023-06-14T08:30:03;19.13;;;9.77;;
80957;SDS011;70419;42.700;23.316;2023-06-14T08:32:32;11.77;;;8.50;;
80957;SDS011;70419;42.700;23.316;2023-06-14T08:34:58;17.60;;;8.95;;
80957;SDS011;70419;42.700;23.316;2023-06-14T08:37:28;15.02;;;8.73;;
80957;SDS011;70419;42.700;23.316;2023-06-14T08:39:54;14.63;;;9.30;;
80957;SDS011;70419;42.700;23.316;2023-06-14T08:42:22;12.55;;;9.88;;
80957;SDS011;70419;42.700;23.316;2023-06-14T08:44:50;15.97;;;9.03;;
80957;SDS011;70419;42.700;23.316;2023-06-14T08:47:16;11.65;;;8.90;;
80957;SDS011;70419;42.700;23.316;2023-06-14T08:49:45;15.27;;;8.25;;
80957;SDS011;70419;42.700;23.316;2023-06-14T08:52:14;11.52;;;7.68;;
80957;SDS011;70419;42.700;23.316;2023-06-14T08:54:45;14.27;;;7.78;;
80957;SDS011;70419;42.700;23.316;2023-06-14T08:57:13;10.93;;;8.20;;
80957;SDS011;70419;42.700;23.316;2023-06-14T08:59:43;16.40;;;8.25;;
80957;SDS011;70419;42.700;23.316;2023-06-14T09:02:14;14.27;;;8.25;;
80957;SDS011;70419;42.700;23.316;2023-06-14T09:04:42;15.50;;;8.18;;
80957;SDS011;70419;42.700;23.316;2023-06-14T09:07:09;9.82;;;8.65;;
80957;SDS011;70419;42.700;23.316;2023-06-14T09:09:40;13.95;;;8.52;;
80957;SDS011;70419;42.700;23.316;2023-06-14T09:12:10;19.38;;;10.48;;
80957;SDS011;70419;42.700;23.316;2023-06-14T09:14:38;18.55;;;9.07;;
80957;SDS011;70419;42.700;23.316;2023-06-14T09:17:07;15.02;;;9.77;;
80957;SDS011;70419;42.700;23.316;2023-06-14T09:19:33;11.43;;;10.23;;
80957;SDS011;70419;42.700;23.316;2023-06-14T09:22:01;11.00;;;9.77;;
80957;SDS011;70419;42.700;23.316;2023-06-14T09:24:28;11.73;;;10.35;;
80957;SDS011;70419;42.700;23.316;2023-06-14T09:26:53;11.02;;;9.40;;
80957;SDS011;70419;42.700;23.316;2023-06-14T09:29:20;15.57;;;8.13;;
80957;SDS011;70419;42.700;23.316;2023-06-14T09:31:46;10.70;;;7.65;;
80957;SDS011;70419;42.700;23.316;2023-06-14T09:34:13;17.65;;;8.23;;
80957;SDS011;70419;42.700;23.316;2023-06-14T09:36:43;20.52;;;8.88;;
80957;SDS011;70419;42.700;23.316;2023-06-14T09:39:10;10.45;;;8.52;;
80957;SDS011;70419;42.700;23.316;2023-06-14T09:41:53;18.08;;;9.55;;
80957;SDS011;70419;42.700;23.316;2023-06-14T09:44:19;15.90;;;9.13;;
80957;SDS011;70419;42.700;23.316;2023-06-14T09:46:53;17.52;;;9.85;;
80957;SDS011;70419;42.700;23.316;2023-06-14T09:49:21;17.47;;;8.77;;
80957;SDS011;70419;42.700;23.316;2023-06-14T09:51:49;18.35;;;10.50;;
80957;SDS011;70419;42.700;23.316;2023-06-14T09:54:20;24.33;;;10.85;;
80957;SDS011;70419;42.700;23.316;2023-06-14T09:56:49;27.80;;;10.27;;
80957;SDS011;70419;42.700;23.316;2023-06-14T09:59:21;14.45;;;9.88;;
80957;SDS011;70419;42.700;23.316;2023-06-14T10:01:57;16.50;;;10.75;;
80957;SDS011;70419;42.700;23.316;2023-06-14T10:04:25;20.02;;;11.77;;
80957;SDS011;70419;42.700;23.316;2023-06-14T10:06:55;13.20;;;9.63;;
80957;SDS011;70419;42.700;23.316;2023-06-14T10:09:23;17.67;;;10.48;;
80957;SDS011;70419;42.700;23.316;2023-06-14T10:11:51;19.23;;;11.10;;
80957;SDS011;70419;42.700;23.316;2023-06-14T10:14:19;21.58;;;10.73;;
80957;SDS011;70419;42.700;23.316;2023-06-14T10:17:00;28.15;;;10.02;;
80957;SDS011;70419;42.700;23.316;2023-06-14T10:19:36;33.72;;;11.07;;
80957;SDS011;70419;42.700;23.316;2023-06-14T10:22:09;21.92;;;10.40;;
80957;SDS011;70419;42.700;23.316;2023-06-14T10:24:40;18.38;;;10.27;;
80957;SDS011;70419;42.700;23.316;2023-06-14T10:27:08;21.17;;;11.48;;
80957;SDS011;70419;42.700;23.316;2023-06-14T10:29:50;20.55;;;10.38;;
80957;SDS011;70419;42.700;23.316;2023-06-14T10:32:21;16.25;;;10.35;;
80957;SDS011;70419;42.700;23.316;2023-06-14T10:37:47;13.18;;;10.63;;
80957;SDS011;70419;42.700;23.316;2023-06-14T10:40:31;22.13;;;12.00;;
80957;SDS011;70419;42.700;23.316;2023-06-14T10:42:58;14.10;;;9.50;;
80957;SDS011;70419;42.700;23.316;2023-06-14T10:46:19;16.35;;;9.82;;
80957;SDS011;70419;42.700;23.316;2023-06-14T10:48:42;11.52;;;8.95;;
80957;SDS011;70419;42.700;23.316;2023-06-14T10:51:17;12.68;;;9.13;;
80957;SDS011;70419;42.700;23.316;2023-06-14T10:53:50;20.30;;;11.93;;
80957;SDS011;70419;42.700;23.316;2023-06-14T10:56:23;15.43;;;9.68;;
80957;SDS011;70419;42.700;23.316;2023-06-14T10:58:54;18.27;;;10.93;;
80957;SDS011;70419;42.700;23.316;2023-06-14T11:04:06;11.75;;;9.60;;
80957;SDS011;70419;42.700;23.316;2023-06-14T11:06:44;12.07;;;10.18;;
80957;SDS011;70419;42.700;23.316;2023-06-14T11:12:16;12.93;;;9.13;;
80957;SDS011;70419;42.700;23.316;2023-06-14T11:14:45;21.63;;;11.27;;
80957;SDS011;70419;42.700;23.316;2023-06-14T11:17:14;14.00;;;10.38;;
80957;SDS011;70419;42.700;23.316;2023-06-14T11:19:40;11.15;;;9.70;;
80957;SDS011;70419;42.700;23.316;2023-06-14T11:22:07;11.23;;;9.25;;
80957;SDS011;70419;42.700;23.316;2023-06-14T11:24:35;13.52;;;9.93;;
80957;SDS011;70419;42.700;23.316;2023-06-14T11:27:01;13.00;;;9.20;;
80957;SDS011;70419;42.700;23.316;2023-06-14T11:29:28;10.05;;;7.70;;
80957;SDS011;70419;42.700;23.316;2023-06-14T11:31:56;9.07;;;7.15;;
80957;SDS011;70419;42.700;23.316;2023-06-14T11:34:25;11.80;;;8.32;;
80957;SDS011;70419;42.700;23.316;2023-06-14T11:36:51;12.05;;;7.65;;
80957;SDS011;70419;42.700;23.316;2023-06-14T11:39:23;11.52;;;8.82;;
80957;SDS011;70419;42.700;23.316;2023-06-14T11:41:49;11.20;;;7.55;;
80957;SDS011;70419;42.700;23.316;2023-06-14T11:44:18;13.27;;;7.72;;
80957;SDS011;70419;42.700;23.316;2023-06-14T11:46:44;8.93;;;8.13;;
80957;SDS011;70419;42.700;23.316;2023-06-14T11:49:11;11.52;;;7.97;;
80957;SDS011;70419;42.700;23.316;2023-06-14T11:51:37;8.93;;;8.00;;
80957;SDS011;70419;42.700;23.316;2023-06-14T11:54:04;8.60;;;7.60;;
80957;SDS011;70419;42.700;23.316;2023-06-14T11:56:31;11.65;;;8.65;;
80957;SDS011;70419;42.700;23.316;2023-06-14T11:58:58;10.38;;;8.18;;
80957;SDS011;70419;42.700;23.316;2023-06-14T12:01:23;10.57;;;7.90;;
80957;SDS011;70419;42.700;23.316;2023-06-14T12:03:51;13.30;;;8.00;;
80957;SDS011;70419;42.700;23.316;2023-06-14T12:06:25;9.95;;;7.20;;
80957;SDS011;70419;42.700;23.316;2023-06-14T12:08:58;9.82;;;7.47;;
80957;SDS011;70419;42.700;23.316;2023-06-14T12:11:31;16.50;;;8.15;;
80957;SDS011;70419;42.700;23.316;2023-06-14T12:13:59;10.63;;;7.00;;
80957;SDS011;70419;42.700;23.316;2023-06-14T12:16:33;9.80;;;7.30;;
80957;SDS011;70419;42.700;23.316;2023-06-14T12:19:09;13.57;;;7.70;;
80957;SDS011;70419;42.700;23.316;2023-06-14T12:21:39;8.98;;;7.55;;
80957;SDS011;70419;42.700;23.316;2023-06-14T12:24:13;8.52;;;7.63;;
80957;SDS011;70419;42.700;23.316;2023-06-14T12:26:39;9.35;;;7.75;;
80957;SDS011;70419;42.700;23.316;2023-06-14T12:29:07;12.43;;;7.22;;
80957;SDS011;70419;42.700;23.316;2023-06-14T12:31:33;9.52;;;6.28;;
80957;SDS011;70419;42.700;23.316;2023-06-14T12:33:59;9.95;;;6.95;;
80957;SDS011;70419;42.700;23.316;2023-06-14T12:36:28;9.10;;;6.78;;
80957;SDS011;70419;42.700;23.316;2023-06-14T12:38:54;9.82;;;7.40;;
80957;SDS011;70419;42.700;23.316;2023-06-14T12:41:20;7.80;;;6.18;;
80957;SDS011;70419;42.700;23.316;2023-06-14T12:43:47;6.95;;;6.25;;
80957;SDS011;70419;42.700;23.316;2023-06-14T12:46:13;9.55;;;6.45;;
80957;SDS011;70419;42.700;23.316;2023-06-14T12:48:39;7.72;;;6.40;;
80957;SDS011;70419;42.700;23.316;2023-06-14T12:51:04;8.98;;;6.95;;
80957;SDS011;70419;42.700;23.316;2023-06-14T12:53:30;11.73;;;6.28;;
80957;SDS011;70419;42.700;23.316;2023-06-14T12:55:56;7.78;;;5.90;;
80957;SDS011;70419;42.700;23.316;2023-06-14T12:58:24;8.27;;;5.65;;
80957;SDS011;70419;42.700;23.316;2023-06-14T13:00:50;9.65;;;6.38;;
80957;SDS011;70419;42.700;23.316;2023-06-14T13:03:16;8.65;;;5.90;;
80957;SDS011;70419;42.700;23.316;2023-06-14T13:05:42;10.38;;;6.43;;
80957;SDS011;70419;42.700;23.316;2023-06-14T13:08:11;8.45;;;6.03;;
80957;SDS011;70419;42.700;23.316;2023-06-14T13:10:37;6.90;;;5.78;;
80957;SDS011;70419;42.700;23.316;2023-06-14T13:13:03;8.30;;;5.82;;
80957;SDS011;70419;42.700;23.316;2023-06-14T13:15:29;10.35;;;5.15;;
80957;SDS011;70419;42.700;23.316;2023-06-14T13:17:56;7.32;;;4.78;;
80957;SDS011;70419;42.700;23.316;2023-06-14T13:20:22;6.60;;;4.78;;
80957;SDS011;70419;42.700;23.316;2023-06-14T13:22:48;10.55;;;5.65;;
80957;SDS011;70419;42.700;23.316;2023-06-14T13:25:17;7.85;;;5.53;;
80957;SDS011;70419;42.700;23.316;2023-06-14T13:27:43;11.13;;;5.97;;
80957;SDS011;70419;42.700;23.316;2023-06-14T13:30:10;15.55;;;6.40;;
80957;SDS011;70419;42.700;23.316;2023-06-14T13:32:36;11.77;;;5.50;;
80957;SDS011;70419;42.700;23.316;2023-06-14T13:35:02;10.43;;;5.55;;
80957;SDS011;70419;42.700;23.316;2023-06-14T13:37:29;8.73;;;5.70;;
80957;SDS011;70419;42.700;23.316;2023-06-14T13:39:55;7.63;;;5.88;;
80957;SDS011;70419;42.700;23.316;2023-06-14T13:42:21;13.32;;;5.80;;
80957;SDS011;70419;42.700;23.316;2023-06-14T13:44:47;8.63;;;5.03;;
80957;SDS011;70419;42.700;23.316;2023-06-14T13:47:13;8.77;;;6.05;;
80957;SDS011;70419;42.700;23.316;2023-06-14T13:49:39;10.70;;;6.72;;
80957;SDS011;70419;42.700;23.316;2023-06-14T13:52:08;10.90;;;6.35;;
80957;SDS011;70419;42.700;23.316;2023-06-14T13:54:33;16.40;;;7.07;;
80957;SDS011;70419;42.700;23.316;2023-06-14T13:56:59;14.40;;;8.13;;
80957;SDS011;70419;42.700;23.316;2023-06-14T13:59:27;9.45;;;6.40;;
80957;SDS011;70419;42.700;23.316;2023-06-14T14:01:53;10.57;;;7.18;;
80957;SDS011;70419;42.700;23.316;2023-06-14T14:04:18;12.93;;;7.35;;
80957;SDS011;70419;42.700;23.316;2023-06-14T14:06:44;11.50;;;7.55;;
80957;SDS011;70419;42.700;23.316;2023-06-14T14:09:11;9.93;;;6.13;;
80957;SDS011;70419;42.700;23.316;2023-06-14T14:11:39;10.07;;;6.38;;
80957;SDS011;70419;42.700;23.316;2023-06-14T14:14:06;11.23;;;6.80;;
80957;SDS011;70419;42.700;23.316;2023-06-14T14:16:32;11.68;;;7.55;;
80957;SDS011;70419;42.700;23.316;2023-06-14T14:18:58;8.73;;;5.60;;
80957;SDS011;70419;42.700;23.316;2023-06-14T14:21:24;10.85;;;6.85;;
80957;SDS011;70419;42.700;23.316;2023-06-14T14:23:50;10.43;;;7.20;;
80957;SDS011;70419;42.700;23.316;2023-06-14T14:26:16;10.88;;;6.57;;
80957;SDS011;70419;42.700;23.316;2023-06-14T14:28:46;9.70;;;6.43;;
80957;SDS011;70419;42.700;23.316;2023-06-14T14:31:12;22.83;;;7.97;;
80957;SDS011;70419;42.700;23.316;2023-06-14T14:33:38;12.75;;;7.45;;
80957;SDS011;70419;42.700;23.316;2023-06-14T14:36:03;10.77;;;6.30;;
80957;SDS011;70419;42.700;23.316;2023-06-14T14:38:31;8.90;;;6.03;;
80957;SDS011;70419;42.700;23.316;2023-06-14T14:40:57;10.48;;;6.75;;
80957;SDS011;70419;42.700;23.316;2023-06-14T14:43:23;12.30;;;6.10;;